createdAt,value
2022-08-23T00:00:26.049Z,86.91
2022-08-23T00:01:26.060Z,86.81
2022-08-23T00:02:26.048Z,87.31
2022-08-23T00:03:26.067Z,87.21
2022-08-23T00:04:30.390Z,87.15
2022-08-23T00:05:26.942Z,87.01
2022-08-23T00:06:25.929Z,87.21
2022-08-23T00:07:25.924Z,87.45
2022-08-23T00:08:25.931Z,88.52
2022-08-23T00:09:25.895Z,87.51
2022-08-23T00:10:25.896Z,87.55
2022-08-23T00:11:25.879Z,88.36
2022-08-23T00:12:25.865Z,88.36
2022-08-23T00:13:25.849Z,88.36
2022-08-23T00:14:26.849Z,88.46
2022-08-23T00:15:25.849Z,88.76
2022-08-23T00:16:25.821Z,88.76
2022-08-23T00:17:33.365Z,88.76
2022-08-23T00:18:26.802Z,88.76
2022-08-23T00:19:25.786Z,88.56
2022-08-23T00:20:25.792Z,88.56
2022-08-23T00:21:25.778Z,89.06
2022-08-23T00:22:25.757Z,88.86
2022-08-23T00:23:25.769Z,88.66
2022-08-23T00:24:25.737Z,89.37
2022-08-23T00:25:25.732Z,89.37
2022-08-23T00:26:25.724Z,89.17
2022-08-23T00:27:25.731Z,89.37
2022-08-23T00:28:25.693Z,89.26
2022-08-23T00:29:25.698Z,89.26
2022-08-23T00:30:25.682Z,89.12
2022-08-23T00:31:25.660Z,89.32
2022-08-23T00:32:25.663Z,89.67
2022-08-23T00:33:25.659Z,89.23
2022-08-23T00:34:25.632Z,89.23
2022-08-23T00:35:26.284Z,89.12
2022-08-23T00:36:25.619Z,89.32
2022-08-23T00:37:25.613Z,89.23
2022-08-23T00:38:34.056Z,89.43
2022-08-23T00:39:26.597Z,89.73
2022-08-23T00:40:25.613Z,89.53
2022-08-23T00:41:25.556Z,89.73
2022-08-23T00:42:25.547Z,89.47
2022-08-23T00:43:25.558Z,90.17
2022-08-23T00:44:25.529Z,90.13
2022-08-23T00:45:25.613Z,90.17
2022-08-23T00:46:25.512Z,90.58
2022-08-23T00:47:25.496Z,90.48
2022-08-23T00:48:25.488Z,90.48
2022-08-23T00:49:25.495Z,90.07
2022-08-23T00:50:25.475Z,90.17
2022-08-23T00:51:25.474Z,90.17
2022-08-23T00:52:25.456Z,90.28
2022-08-23T00:53:25.432Z,90.17
2022-08-23T00:54:25.439Z,90.28
2022-08-23T00:55:25.414Z,90.17
2022-08-23T00:56:25.423Z,90.28
2022-08-23T00:57:25.430Z,90.48
2022-08-23T00:58:25.390Z,90.48
2022-08-23T00:59:25.381Z,90.07
2022-08-23T01:00:25.380Z,90.07
2022-08-23T01:01:25.416Z,90.17
2022-08-23T01:02:25.359Z,90.28
2022-08-23T01:03:25.342Z,90.78
2022-08-23T01:04:25.326Z,90.68
2022-08-23T01:05:25.305Z,91.02
2022-08-23T01:06:25.307Z,91.28
2022-08-23T01:07:25.311Z,90.98
2022-08-23T01:08:25.286Z,91.33
2022-08-23T01:09:25.283Z,91.18
2022-08-23T01:10:25.264Z,91.38
2022-08-23T01:11:25.257Z,90.72
2022-08-23T01:12:32.615Z,91.53
2022-08-23T01:13:26.229Z,91.22
2022-08-23T01:14:25.214Z,91.28
2022-08-23T01:15:25.224Z,91.33
2022-08-23T01:16:25.207Z,91.13
2022-08-23T01:17:25.197Z,90.98
2022-08-23T01:18:25.193Z,90.82
2022-08-23T01:19:25.170Z,91.18
2022-08-23T01:20:26.803Z,91.28
2022-08-23T01:21:25.164Z,91.69
2022-08-23T01:22:25.130Z,91.99
2022-08-23T01:23:25.149Z,91.93
2022-08-23T01:24:49.793Z,91.53
2022-08-23T01:25:26.109Z,91.73
2022-08-23T01:26:25.093Z,91.53
2022-08-23T01:27:25.094Z,91.83
2022-08-23T01:28:25.079Z,91.93
2022-08-23T01:29:25.083Z,91.63
2022-08-23T01:30:25.056Z,91.63
2022-08-23T01:31:25.041Z,91.49
2022-08-23T01:32:25.047Z,91.42
2022-08-23T01:33:25.033Z,91.69
2022-08-23T01:34:25.030Z,91.63
2022-08-23T01:36:24.997Z,92.03
2022-08-23T01:37:24.983Z,91.58
2022-08-23T01:38:24.972Z,91.63
2022-08-23T01:39:24.965Z,91.58
2022-08-23T01:40:24.984Z,91.58
2022-08-23T01:41:24.947Z,91.38
2022-08-23T01:42:24.932Z,91.49
2022-08-23T01:43:24.917Z,91.89
2022-08-23T01:44:27.395Z,91.58
2022-08-23T01:45:24.903Z,91.58
2022-08-23T01:46:24.900Z,91.99
2022-08-23T01:47:24.880Z,91.89
2022-08-23T01:48:24.864Z,91.58
2022-08-23T01:49:24.852Z,91.93
2022-08-23T01:50:24.906Z,91.69
2022-08-23T01:51:24.869Z,91.99
2022-08-23T01:52:24.827Z,91.78
2022-08-23T01:53:24.815Z,91.49
2022-08-23T01:54:24.807Z,91.99
2022-08-23T01:55:24.798Z,91.99
2022-08-23T01:56:39.006Z,91.58
2022-08-23T01:57:25.798Z,91.38
2022-08-23T01:58:24.765Z,91.89
2022-08-23T01:59:32.377Z,91.89
2022-08-23T02:00:33.409Z,92.09
2022-08-23T02:01:24.820Z,91.89
2022-08-23T02:02:34.372Z,91.78
2022-08-23T02:03:24.737Z,91.89
2022-08-23T02:04:24.781Z,91.78
2022-08-23T02:05:24.734Z,91.69
2022-08-23T02:06:24.794Z,91.69
2022-08-23T02:07:24.685Z,91.69
2022-08-23T02:08:24.670Z,91.78
2022-08-23T02:09:25.674Z,91.58
2022-08-23T02:10:24.636Z,91.89
2022-08-23T02:11:24.628Z,91.69
2022-08-23T02:12:24.622Z,91.58
2022-08-23T02:13:24.605Z,91.99
2022-08-23T02:14:24.612Z,91.99
2022-08-23T02:15:24.591Z,91.49
2022-08-23T02:16:24.583Z,91.38
2022-08-23T02:17:24.578Z,91.58
2022-08-23T02:18:24.569Z,91.64
2022-08-23T02:19:24.550Z,91.69
2022-08-23T02:20:24.554Z,91.58
2022-08-23T02:21:24.533Z,91.58
2022-08-23T02:22:24.523Z,91.49
2022-08-23T02:23:24.525Z,91.69
2022-08-23T02:24:24.512Z,90.84
2022-08-23T02:25:24.480Z,91.69
2022-08-23T02:26:31.084Z,91.38
2022-08-23T02:27:25.472Z,91.28
2022-08-23T02:28:24.456Z,91.28
2022-08-23T02:29:24.468Z,91.38
2022-08-23T02:30:24.436Z,91.08
2022-08-23T02:31:24.415Z,91.08
2022-08-23T02:32:26.912Z,91.18
2022-08-23T02:33:24.398Z,91.28
2022-08-23T02:34:25.245Z,90.98
2022-08-23T02:35:24.407Z,91.38
2022-08-23T02:36:24.374Z,91.28
2022-08-23T02:37:24.350Z,90.88
2022-08-23T02:38:24.354Z,90.88
2022-08-23T02:39:24.344Z,90.68
2022-08-23T02:40:24.410Z,91.28
2022-08-23T02:41:24.320Z,90.88
2022-08-23T02:42:24.297Z,91.93
2022-08-23T02:43:24.293Z,91.69
2022-08-23T02:44:24.284Z,91.63
2022-08-23T02:45:24.276Z,91.42
2022-08-23T02:46:24.264Z,91.93
2022-08-23T02:47:24.303Z,91.83
2022-08-23T02:48:24.240Z,92.03
2022-08-23T02:49:24.225Z,92.33
2022-08-23T02:50:24.212Z,92.63
2022-08-23T02:51:24.206Z,92.43
2022-08-23T02:52:24.193Z,93.34
2022-08-23T02:53:24.199Z,93.29
2022-08-23T02:54:24.176Z,93.79
2022-08-23T02:55:24.164Z,93.38
2022-08-23T02:56:24.156Z,94.59
2022-08-23T02:57:24.155Z,94.29
2022-08-23T02:58:24.136Z,94.19
2022-08-23T02:59:24.128Z,94.29
2022-08-23T03:00:24.115Z,94.49
2022-08-23T03:01:24.107Z,94.59
2022-08-23T03:02:24.171Z,94.19
2022-08-23T03:03:24.097Z,94.49
2022-08-23T03:04:24.073Z,94.29
2022-08-23T03:05:24.068Z,94.39
2022-08-23T03:06:25.200Z,94.74
2022-08-23T03:07:24.041Z,94.90
2022-08-23T03:08:24.030Z,95.00
2022-08-23T03:09:24.033Z,94.90
2022-08-23T03:10:24.014Z,94.49
2022-08-23T03:11:24.006Z,94.34
2022-08-23T03:12:23.986Z,94.29
2022-08-23T03:13:23.978Z,94.74
2022-08-23T03:14:23.963Z,94.80
2022-08-23T03:15:23.959Z,95.14
2022-08-23T03:16:23.941Z,94.84
2022-08-23T03:17:23.951Z,95.00
2022-08-23T03:18:23.917Z,94.80
2022-08-23T03:19:23.916Z,94.94
2022-08-23T03:20:23.920Z,95.65
2022-08-23T03:21:23.887Z,95.14
2022-08-23T03:22:23.903Z,95.35
2022-08-23T03:23:23.881Z,95.14
2022-08-23T03:24:23.870Z,95.65
2022-08-23T03:25:23.848Z,95.75
2022-08-23T03:26:23.846Z,95.35
2022-08-23T03:27:23.835Z,94.94
2022-08-23T03:28:23.833Z,95.75
2022-08-23T03:29:23.833Z,95.65
2022-08-23T03:30:23.801Z,96.15
2022-08-23T03:31:23.789Z,96.45
2022-08-23T03:32:25.105Z,95.90
2022-08-23T03:33:23.767Z,96.36
2022-08-23T03:34:23.777Z,96.30
2022-08-23T03:35:23.760Z,96.96
2022-08-23T03:36:28.309Z,96.50
2022-08-23T03:37:23.724Z,96.60
2022-08-23T03:38:23.719Z,97.31
2022-08-23T03:39:23.715Z,96.45
2022-08-23T03:40:23.730Z,96.40
2022-08-23T03:41:23.753Z,96.80
2022-08-23T03:42:24.021Z,96.30
2022-08-23T03:43:24.661Z,96.85
2022-08-23T03:44:23.669Z,97.11
2022-08-23T03:45:23.659Z,96.91
2022-08-23T03:46:23.649Z,97.31
2022-08-23T03:47:23.779Z,97.01
2022-08-23T03:48:23.608Z,97.01
2022-08-23T03:49:23.605Z,97.01
2022-08-23T03:50:23.592Z,97.41
2022-08-23T03:51:23.612Z,97.56
2022-08-23T03:52:23.578Z,96.95
2022-08-23T03:53:23.557Z,96.95
2022-08-23T03:54:23.553Z,96.85
2022-08-23T03:55:23.541Z,97.25
2022-08-23T03:56:23.540Z,96.75
2022-08-23T03:57:23.531Z,96.85
2022-08-23T03:58:23.525Z,96.34
2022-08-23T03:59:23.493Z,96.65
2022-08-23T04:00:23.491Z,97.05
2022-08-23T04:01:28.338Z,96.95
2022-08-23T04:02:24.471Z,97.05
2022-08-23T04:03:23.458Z,97.21
2022-08-23T04:04:23.452Z,96.95
2022-08-23T04:05:23.433Z,96.95
2022-08-23T04:06:23.422Z,96.80
2022-08-23T04:07:23.424Z,97.01
2022-08-23T04:08:33.370Z,97.45
2022-08-23T04:09:24.399Z,97.25
2022-08-23T04:10:23.391Z,97.56
2022-08-23T04:11:23.366Z,97.66
2022-08-23T04:12:23.370Z,97.45
2022-08-23T04:13:23.360Z,97.25
2022-08-23T04:14:30.980Z,97.36
2022-08-23T04:15:23.404Z,96.95
2022-08-23T04:16:23.337Z,96.85
2022-08-23T04:17:23.323Z,96.95
2022-08-23T04:18:23.357Z,96.75
2022-08-23T04:19:23.366Z,96.85
2022-08-23T04:20:23.313Z,96.55
2022-08-23T04:21:23.390Z,96.45
2022-08-23T04:22:23.269Z,96.55
2022-08-23T04:23:23.257Z,96.75
2022-08-23T04:24:23.252Z,96.34
2022-08-23T04:25:34.403Z,96.34
2022-08-23T04:26:28.362Z,95.94
2022-08-23T04:27:24.215Z,95.74
2022-08-23T04:28:23.183Z,95.74
2022-08-23T04:29:34.481Z,95.84
2022-08-23T04:30:24.164Z,96.14
2022-08-23T04:31:23.158Z,96.34
2022-08-23T04:32:28.143Z,97.16
2022-08-23T04:33:24.137Z,96.85
2022-08-23T04:34:23.145Z,96.29
2022-08-23T04:35:24.109Z,96.49
2022-08-23T04:36:23.426Z,96.39
2022-08-23T04:37:23.095Z,96.19
2022-08-23T04:38:24.935Z,96.39
2022-08-23T04:39:23.066Z,96.80
2022-08-23T04:40:23.122Z,97.20
2022-08-23T04:41:23.060Z,96.09
2022-08-23T04:42:23.032Z,96.49
2022-08-23T04:43:23.021Z,96.34
2022-08-23T04:44:23.027Z,96.25
2022-08-23T04:45:23.011Z,96.59
2022-08-23T04:46:23.010Z,96.59
2022-08-23T04:47:22.979Z,96.09
2022-08-23T04:48:22.979Z,96.49
2022-08-23T04:49:22.967Z,96.89
2022-08-23T04:50:22.961Z,95.98
2022-08-23T04:51:22.950Z,96.14
2022-08-23T04:52:22.934Z,96.59
2022-08-23T04:53:22.925Z,96.49
2022-08-23T04:54:22.922Z,96.49
2022-08-23T04:55:22.902Z,96.29
2022-08-23T04:56:22.902Z,96.19
2022-08-23T04:57:22.891Z,96.69
2022-08-23T04:58:22.867Z,96.55
2022-08-23T04:59:22.861Z,96.59
2022-08-23T05:00:22.852Z,96.09
2022-08-23T05:01:23.895Z,96.55
2022-08-23T05:02:22.840Z,96.45
2022-08-23T05:03:22.841Z,96.45
2022-08-23T05:04:22.801Z,96.34
2022-08-23T05:05:22.792Z,96.75
2022-08-23T05:06:22.783Z,96.55
2022-08-23T05:07:31.913Z,97.00
2022-08-23T05:08:23.788Z,97.05
2022-08-23T05:09:22.758Z,96.39
2022-08-23T05:10:22.767Z,96.49
2022-08-23T05:11:22.728Z,96.39
2022-08-23T05:12:22.962Z,95.84
2022-08-23T05:13:22.708Z,95.84
2022-08-23T05:14:22.716Z,95.84
2022-08-23T05:15:22.684Z,95.64
2022-08-23T05:16:22.670Z,95.74
2022-08-23T05:17:22.679Z,95.64
2022-08-23T05:18:22.662Z,95.43
2022-08-23T05:19:22.648Z,95.39
2022-08-23T05:20:22.646Z,96.00
2022-08-23T05:21:22.627Z,95.59
2022-08-23T05:22:22.620Z,95.29
2022-08-23T05:23:23.438Z,95.19
2022-08-23T05:24:23.599Z,94.99
2022-08-23T05:25:22.584Z,94.59
2022-08-23T05:26:22.575Z,94.94
2022-08-23T05:27:22.570Z,94.54
2022-08-23T05:28:22.585Z,94.13
2022-08-23T05:29:22.536Z,94.24
2022-08-23T05:30:22.523Z,94.34
2022-08-23T05:31:22.527Z,94.44
2022-08-23T05:32:22.521Z,94.34
2022-08-23T05:33:22.521Z,94.44
2022-08-23T05:34:22.849Z,93.69
2022-08-23T05:35:22.483Z,93.79
2022-08-23T05:36:22.461Z,94.09
2022-08-23T05:37:22.456Z,94.29
2022-08-23T05:38:22.463Z,93.63
2022-08-23T05:39:26.382Z,94.19
2022-08-23T05:40:23.475Z,94.09
2022-08-23T05:41:22.420Z,93.59
2022-08-23T05:42:23.398Z,93.49
2022-08-23T05:43:22.388Z,93.59
2022-08-23T05:44:22.414Z,93.14
2022-08-23T05:45:22.384Z,93.18
2022-08-23T05:46:22.359Z,93.14
2022-08-23T05:47:24.863Z,92.58
2022-08-23T05:48:22.339Z,92.54
2022-08-23T05:49:22.327Z,93.04
2022-08-23T05:50:22.354Z,92.54
2022-08-23T05:51:22.310Z,93.24
2022-08-23T05:52:22.304Z,93.14
2022-08-23T05:53:22.295Z,92.54
2022-08-23T05:54:22.281Z,92.54
2022-08-23T05:55:22.266Z,92.94
2022-08-23T05:56:23.297Z,92.83
2022-08-23T05:57:22.252Z,92.94
2022-08-23T05:58:22.251Z,92.78
2022-08-23T05:59:22.231Z,92.74
2022-08-23T06:00:22.232Z,92.63
2022-08-23T06:01:23.254Z,92.54
2022-08-23T06:02:22.213Z,93.04
2022-08-23T06:03:22.191Z,92.74
2022-08-23T06:04:22.180Z,93.29
2022-08-23T06:05:22.172Z,93.44
2022-08-23T06:06:22.167Z,93.34
2022-08-23T06:07:22.137Z,93.24
2022-08-23T06:08:22.140Z,93.44
2022-08-23T06:09:22.123Z,93.49
2022-08-23T06:10:22.120Z,93.29
2022-08-23T06:11:22.099Z,93.38
2022-08-23T06:12:22.089Z,93.49
2022-08-23T06:13:22.081Z,93.69
2022-08-23T06:14:22.129Z,93.59
2022-08-23T06:15:22.078Z,93.29
2022-08-23T06:16:22.055Z,93.69
2022-08-23T06:17:22.057Z,93.38
2022-08-23T06:18:22.030Z,93.89
2022-08-23T06:19:22.028Z,93.49
2022-08-23T06:20:22.101Z,93.49
2022-08-23T06:21:22.025Z,93.29
2022-08-23T06:22:21.988Z,93.38
2022-08-23T06:23:21.981Z,93.65
2022-08-23T06:24:21.961Z,93.14
2022-08-23T06:25:21.959Z,93.34
2022-08-23T06:26:21.971Z,93.34
2022-08-23T06:27:29.578Z,93.24
2022-08-23T06:28:25.616Z,93.34
2022-08-23T06:29:22.049Z,93.24
2022-08-23T06:30:21.955Z,93.24
2022-08-23T06:31:22.015Z,93.14
2022-08-23T06:32:22.990Z,92.83
2022-08-23T06:33:21.968Z,92.63
2022-08-23T06:34:21.981Z,93.04
2022-08-23T06:35:39.299Z,93.04
2022-08-23T06:36:22.846Z,92.03
2022-08-23T06:37:21.854Z,92.09
2022-08-23T06:38:21.827Z,91.28
2022-08-23T06:39:21.820Z,91.49
2022-08-23T06:40:21.825Z,91.64
2022-08-23T06:41:21.791Z,91.49
2022-08-23T06:42:38.209Z,91.64
2022-08-23T06:43:22.771Z,91.44
2022-08-23T06:44:21.759Z,91.04
2022-08-23T06:45:21.747Z,90.73
2022-08-23T06:46:23.497Z,90.49
2022-08-23T06:47:21.738Z,90.64
2022-08-23T06:48:21.713Z,90.69
2022-08-23T06:49:21.700Z,90.79
2022-08-23T06:50:21.716Z,91.19
2022-08-23T06:51:21.679Z,90.49
2022-08-23T06:52:21.699Z,90.39
2022-08-23T06:53:21.658Z,90.44
2022-08-23T06:54:21.650Z,90.84
2022-08-23T06:55:21.644Z,90.79
2022-08-23T06:56:21.648Z,90.99
2022-08-23T06:57:21.626Z,91.09
2022-08-23T06:58:21.615Z,90.79
2022-08-23T06:59:21.599Z,90.49
2022-08-23T07:00:22.553Z,90.49
2022-08-23T07:01:44.174Z,90.15
2022-08-23T07:02:22.771Z,90.34
2022-08-23T07:03:21.570Z,90.49
2022-08-23T07:04:21.545Z,89.89
2022-08-23T07:05:21.550Z,90.05
2022-08-23T07:06:21.519Z,90.15
2022-08-23T07:07:21.541Z,90.05
2022-08-23T07:08:21.507Z,89.10
2022-08-23T07:09:21.502Z,89.20
2022-08-23T07:10:21.484Z,90.34
2022-08-23T07:11:21.468Z,90.34
2022-08-23T07:12:21.459Z,90.30
2022-08-23T07:13:21.457Z,90.20
2022-08-23T07:14:21.455Z,89.90
2022-08-23T07:15:21.461Z,90.00
2022-08-23T07:16:21.461Z,90.00
2022-08-23T07:17:21.412Z,90.30
2022-08-23T07:18:21.417Z,90.11
2022-08-23T07:19:21.390Z,89.90
2022-08-23T07:20:21.381Z,90.20
2022-08-23T07:21:21.388Z,90.00
2022-08-23T07:22:21.356Z,90.16
2022-08-23T07:23:21.348Z,89.26
2022-08-23T07:24:21.346Z,89.96
2022-08-23T07:25:21.319Z,89.90
2022-08-23T07:26:21.318Z,90.26
2022-08-23T07:27:21.333Z,90.06
2022-08-23T07:28:21.299Z,89.96
2022-08-23T07:29:21.304Z,89.06
2022-08-23T07:30:21.272Z,88.51
2022-08-23T07:31:21.340Z,89.46
2022-08-23T07:32:21.266Z,90.36
2022-08-23T07:33:22.486Z,89.22
2022-08-23T07:34:21.257Z,89.82
2022-08-23T07:35:21.612Z,89.11
2022-08-23T07:36:21.206Z,89.22
2022-08-23T07:37:21.203Z,88.55
2022-08-23T07:38:21.184Z,89.56
2022-08-23T07:39:21.184Z,89.86
2022-08-23T07:40:21.189Z,89.22
2022-08-23T07:41:21.164Z,89.31
2022-08-23T07:42:23.576Z,89.72
2022-08-23T07:43:21.140Z,90.22
2022-08-23T07:44:24.982Z,89.01
2022-08-23T07:45:22.327Z,89.07
2022-08-23T07:46:21.174Z,88.67
2022-08-23T07:47:21.092Z,89.07
2022-08-23T07:48:37.323Z,88.57
2022-08-23T07:49:22.076Z,88.77
2022-08-23T07:50:21.094Z,88.73
2022-08-23T07:51:21.054Z,87.18
2022-08-23T07:52:21.051Z,87.98
2022-08-23T07:53:37.477Z,87.28
2022-08-23T07:54:22.019Z,86.88
2022-08-23T07:55:21.008Z,86.98
2022-08-23T07:56:21.011Z,87.14
2022-08-23T07:57:20.995Z,86.64
2022-08-23T07:58:21.001Z,86.94
2022-08-23T07:59:20.972Z,86.33
2022-08-23T08:00:20.954Z,86.60
2022-08-23T08:01:21.005Z,86.80
2022-08-23T08:02:20.934Z,86.69
2022-08-23T08:03:20.967Z,85.99
2022-08-23T08:04:20.938Z,85.85
2022-08-23T08:05:21.850Z,84.75
2022-08-23T08:06:20.896Z,85.05
2022-08-23T08:07:21.417Z,84.95
2022-08-23T08:08:20.894Z,85.46
2022-08-23T08:09:20.876Z,84.85
2022-08-23T08:10:20.855Z,84.95
2022-08-23T08:11:20.845Z,84.81
2022-08-23T08:12:20.841Z,84.51
2022-08-23T08:13:20.825Z,84.81
2022-08-23T08:14:20.806Z,85.01
2022-08-23T08:15:20.806Z,84.31
2022-08-23T08:16:20.841Z,84.77
2022-08-23T08:17:25.450Z,84.07
2022-08-23T08:18:21.765Z,84.87
2022-08-23T08:19:20.753Z,84.77
2022-08-23T08:20:20.866Z,84.67
2022-08-23T08:21:20.736Z,83.67
2022-08-23T08:22:20.732Z,83.47
2022-08-23T08:23:20.727Z,83.53
2022-08-23T08:24:20.706Z,82.63
2022-08-23T08:25:20.691Z,82.63
2022-08-23T08:26:20.684Z,82.69
2022-08-23T08:27:21.630Z,83.43
2022-08-23T08:28:20.691Z,82.53
2022-08-23T08:29:20.651Z,82.29
2022-08-23T08:30:20.669Z,82.43
2022-08-23T08:31:20.700Z,82.39
2022-08-23T08:32:20.624Z,82.59
2022-08-23T08:33:20.630Z,82.49
2022-08-23T08:34:20.618Z,82.85
2022-08-23T08:35:20.591Z,82.05
2022-08-23T08:36:20.581Z,82.05
2022-08-23T08:37:20.569Z,81.85
2022-08-23T08:38:31.443Z,81.85
2022-08-23T08:39:29.236Z,81.51
2022-08-23T08:40:28.189Z,80.68
2022-08-23T08:41:20.550Z,80.08
2022-08-23T08:42:20.562Z,79.88
2022-08-23T08:43:20.565Z,80.08
2022-08-23T08:44:21.333Z,79.58
2022-08-23T08:45:20.521Z,76.58
2022-08-23T08:46:20.510Z,78.14
2022-08-23T08:47:20.473Z,79.34
2022-08-23T08:48:20.469Z,79.40
2022-08-23T08:49:20.444Z,76.71
2022-08-23T08:50:20.440Z,76.21
2022-08-23T08:51:20.440Z,74.98
2022-08-23T08:52:20.428Z,75.07
2022-08-23T08:53:20.396Z,75.67
2022-08-23T08:54:20.390Z,74.08
2022-08-23T08:55:20.411Z,71.78
2022-08-23T08:56:20.371Z,71.98
2022-08-23T08:57:25.363Z,74.58
2022-08-23T08:58:21.359Z,73.78
2022-08-23T08:59:20.335Z,73.18
2022-08-23T09:00:20.336Z,74.48
2022-08-23T09:01:20.415Z,73.68
2022-08-23T09:02:33.209Z,73.14
2022-08-23T09:03:21.348Z,72.95
2022-08-23T09:04:20.283Z,71.92
2022-08-23T09:05:20.277Z,72.41
2022-08-23T09:06:20.259Z,71.72
2022-08-23T09:07:20.265Z,72.02
2022-08-23T09:08:20.249Z,71.12
2022-08-23T09:09:20.241Z,69.46
2022-08-23T09:10:20.226Z,69.56
2022-08-23T09:11:20.198Z,70.26
2022-08-23T09:12:20.215Z,71.05
2022-08-23T09:13:20.893Z,70.75
2022-08-23T09:14:20.180Z,70.45
2022-08-23T09:15:20.167Z,70.95
2022-08-23T09:16:20.224Z,70.95
2022-08-23T09:17:20.824Z,71.95
2022-08-23T09:18:20.129Z,70.86
2022-08-23T09:19:20.143Z,71.15
2022-08-23T09:20:20.117Z,71.45
2022-08-23T09:21:20.125Z,71.85
2022-08-23T09:22:20.108Z,71.12
2022-08-23T09:23:20.083Z,71.81
2022-08-23T09:24:20.080Z,69.62
2022-08-23T09:25:20.067Z,69.62
2022-08-23T09:26:20.045Z,70.56
2022-08-23T09:27:20.043Z,70.92
2022-08-23T09:28:20.051Z,69.23
2022-08-23T09:29:20.018Z,69.96
2022-08-23T09:30:20.034Z,69.86
2022-08-23T09:31:20.042Z,71.35
2022-08-23T09:32:19.983Z,70.95
2022-08-23T09:33:19.978Z,70.65
2022-08-23T09:34:19.977Z,70.56
2022-08-23T09:35:19.950Z,71.51
2022-08-23T09:36:19.962Z,68.99
2022-08-23T09:37:19.926Z,68.30
2022-08-23T09:38:19.934Z,67.70
2022-08-23T09:39:19.916Z,69.49
2022-08-23T09:40:19.978Z,68.10
2022-08-23T09:41:19.899Z,68.37
2022-08-23T09:42:19.878Z,67.97
2022-08-23T09:43:19.946Z,68.40
2022-08-23T09:44:19.867Z,68.96
2022-08-23T09:45:19.848Z,65.78
2022-08-23T09:46:19.905Z,65.98
2022-08-23T09:47:19.852Z,66.47
2022-08-23T09:48:19.825Z,66.47
2022-08-23T09:49:19.821Z,67.07
2022-08-23T09:50:19.819Z,67.44
2022-08-23T09:51:19.792Z,67.14
2022-08-23T09:52:22.239Z,66.38
2022-08-23T09:53:19.781Z,66.38
2022-08-23T09:54:19.754Z,67.14
2022-08-23T09:55:19.742Z,66.05
2022-08-23T09:56:19.738Z,64.95
2022-08-23T09:57:19.737Z,64.78
2022-08-23T09:58:19.725Z,64.88
2022-08-23T09:59:19.721Z,64.88
2022-08-23T10:00:20.691Z,65.78
2022-08-23T10:01:19.737Z,64.48
2022-08-23T10:02:20.031Z,65.18
2022-08-23T10:03:19.671Z,65.55
2022-08-23T10:04:19.705Z,65.64
2022-08-23T10:05:19.668Z,64.52
2022-08-23T10:06:19.630Z,64.45
2022-08-23T10:07:19.631Z,64.95
2022-08-23T10:08:19.608Z,65.38
2022-08-23T10:09:19.598Z,65.58
2022-08-23T10:10:19.599Z,66.38
2022-08-23T10:11:20.178Z,66.47
2022-08-23T10:12:19.588Z,66.77
2022-08-23T10:13:20.814Z,66.01
2022-08-23T10:14:19.548Z,64.48
2022-08-23T10:15:19.565Z,65.08
2022-08-23T10:16:19.609Z,64.55
2022-08-23T10:17:19.524Z,64.92
2022-08-23T10:18:19.512Z,63.20
2022-08-23T10:19:19.499Z,64.46
2022-08-23T10:20:19.491Z,61.98
2022-08-23T10:21:23.742Z,61.68
2022-08-23T10:22:19.470Z,62.30
2022-08-23T10:23:19.460Z,61.78
2022-08-23T10:24:19.468Z,60.98
2022-08-23T10:25:19.438Z,61.48
2022-08-23T10:26:19.444Z,60.88
2022-08-23T10:27:19.420Z,60.88
2022-08-23T10:28:19.399Z,60.69
2022-08-23T10:29:19.395Z,61.48
2022-08-23T10:30:19.397Z,61.88
2022-08-23T10:31:19.388Z,62.84
2022-08-23T10:32:19.369Z,61.05
2022-08-23T10:33:19.357Z,62.24
2022-08-23T10:34:19.334Z,62.34
2022-08-23T10:35:19.331Z,61.25
2022-08-23T10:36:19.326Z,61.75
2022-08-23T10:37:19.312Z,61.15
2022-08-23T10:38:19.298Z,60.66
2022-08-23T10:39:19.279Z,62.41
2022-08-23T10:40:19.354Z,60.56
2022-08-23T10:41:19.268Z,60.96
2022-08-23T10:42:19.269Z,62.05
2022-08-23T10:43:19.260Z,60.83
2022-08-23T10:44:19.242Z,60.72
2022-08-23T10:45:19.222Z,60.72
2022-08-23T10:46:19.274Z,60.83
2022-08-23T10:47:19.201Z,60.46
2022-08-23T10:48:21.470Z,60.46
2022-08-23T10:49:19.198Z,60.83
2022-08-23T10:50:19.171Z,60.43
2022-08-23T10:51:31.676Z,60.63
2022-08-23T10:52:19.196Z,60.83
2022-08-23T10:53:26.749Z,61.52
2022-08-23T10:54:19.222Z,60.23
2022-08-23T10:55:19.176Z,60.83
2022-08-23T10:56:19.171Z,61.32
2022-08-23T10:57:19.179Z,60.89
2022-08-23T10:58:19.100Z,60.60
2022-08-23T10:59:19.087Z,60.89
2022-08-23T11:00:19.093Z,61.19
2022-08-23T11:01:19.133Z,60.89
2022-08-23T11:02:19.107Z,62.02
2022-08-23T11:03:19.058Z,61.69
2022-08-23T11:04:19.036Z,59.61
2022-08-23T11:05:19.028Z,60.00
2022-08-23T11:06:19.016Z,61.26
2022-08-23T11:07:19.000Z,60.27
2022-08-23T11:08:19.009Z,59.45
2022-08-23T11:09:18.980Z,59.35
2022-08-23T11:10:18.978Z,58.33
2022-08-23T11:11:18.955Z,59.03
2022-08-23T11:12:18.964Z,58.53
2022-08-23T11:13:18.945Z,58.92
2022-08-23T11:14:18.947Z,59.03
2022-08-23T11:15:18.938Z,58.43
2022-08-23T11:16:18.919Z,58.56
2022-08-23T11:17:18.898Z,59.25
2022-08-23T11:18:18.884Z,60.37
2022-08-23T11:19:18.880Z,60.27
2022-08-23T11:20:18.874Z,61.82
2022-08-23T11:21:18.863Z,63.87
2022-08-23T11:22:18.844Z,62.02
2022-08-23T11:23:18.836Z,63.04
2022-08-23T11:24:18.822Z,63.43
2022-08-23T11:25:18.811Z,63.17
2022-08-23T11:26:18.834Z,63.89
2022-08-23T11:27:18.791Z,63.70
2022-08-23T11:28:18.773Z,63.89
2022-08-23T11:29:18.774Z,61.98
2022-08-23T11:30:18.766Z,62.47
2022-08-23T11:31:18.777Z,61.85
2022-08-23T11:32:18.774Z,61.65
2022-08-23T11:33:18.725Z,61.35
2022-08-23T11:34:18.721Z,61.45
2022-08-23T11:35:19.182Z,60.75
2022-08-23T11:36:18.700Z,60.36
2022-08-23T11:37:18.696Z,60.26
2022-08-23T11:38:22.424Z,60.33
2022-08-23T11:39:18.677Z,59.93
2022-08-23T11:40:19.780Z,59.01
2022-08-23T11:41:18.648Z,58.39
2022-08-23T11:42:18.650Z,57.27
2022-08-23T11:43:18.646Z,58.63
2022-08-23T11:44:18.638Z,57.04
2022-08-23T11:45:18.613Z,60.38
2022-08-23T11:46:18.634Z,56.59
2022-08-23T11:47:18.590Z,55.51
2022-08-23T11:48:18.571Z,56.00
2022-08-23T11:49:18.579Z,55.38
2022-08-23T11:50:18.555Z,54.88
2022-08-23T11:51:18.545Z,55.18
2022-08-23T11:52:18.534Z,54.10
2022-08-23T11:53:18.536Z,55.21
2022-08-23T11:54:18.516Z,55.43
2022-08-23T11:55:18.498Z,56.55
2022-08-23T11:56:18.502Z,56.74
2022-08-23T11:57:18.485Z,58.75
2022-08-23T11:58:18.497Z,58.78
2022-08-23T11:59:18.460Z,58.78
2022-08-23T12:00:20.991Z,58.54
2022-08-23T12:01:19.783Z,58.64
2022-08-23T12:02:18.607Z,59.76
2022-08-23T12:03:18.569Z,60.33
2022-08-23T12:04:18.427Z,59.04
2022-08-23T12:05:18.412Z,58.97
2022-08-23T12:06:18.402Z,59.66
2022-08-23T12:07:18.382Z,59.66
2022-08-23T12:08:18.374Z,58.44
2022-08-23T12:09:18.357Z,58.74
2022-08-23T12:10:18.355Z,58.42
2022-08-23T12:11:18.346Z,56.83
2022-08-23T12:12:18.321Z,57.62
2022-08-23T12:13:18.326Z,56.40
2022-08-23T12:14:18.299Z,55.81
2022-08-23T12:15:18.290Z,56.77
2022-08-23T12:16:18.358Z,56.18
2022-08-23T12:17:18.273Z,56.48
2022-08-23T12:18:23.875Z,56.35
2022-08-23T12:19:19.268Z,55.85
2022-08-23T12:20:18.242Z,55.53
2022-08-23T12:21:18.235Z,54.64
2022-08-23T12:22:18.238Z,55.53
2022-08-23T12:23:18.214Z,55.24
2022-08-23T12:24:18.193Z,55.93
2022-08-23T12:25:18.199Z,53.25
2022-08-23T12:26:18.174Z,52.56
2022-08-23T12:27:18.163Z,53.67
2022-08-23T12:28:18.176Z,53.28
2022-08-23T12:29:18.209Z,53.08
2022-08-23T12:30:18.133Z,53.75
2022-08-23T12:31:18.937Z,53.35
2022-08-23T12:32:18.117Z,52.46
2022-08-23T12:33:18.099Z,52.46
2022-08-23T12:34:18.123Z,53.06
2022-08-23T12:35:18.091Z,52.76
2022-08-23T12:36:18.081Z,53.13
2022-08-23T12:37:18.073Z,53.50
2022-08-23T12:38:18.048Z,54.88
2022-08-23T12:39:18.052Z,53.38
2022-08-23T12:40:18.171Z,53.50
2022-08-23T12:41:18.021Z,54.59
2022-08-23T12:42:18.021Z,54.24
2022-08-23T12:43:22.739Z,53.97
2022-08-23T12:44:18.989Z,54.96
2022-08-23T12:45:18.004Z,55.19
2022-08-23T12:46:18.028Z,54.99
2022-08-23T12:47:17.965Z,55.21
2022-08-23T12:48:17.949Z,55.61
2022-08-23T12:49:17.933Z,55.32
2022-08-23T12:50:17.935Z,55.41
2022-08-23T12:51:17.932Z,54.89
2022-08-23T12:52:17.919Z,56.74
2022-08-23T12:53:17.912Z,54.07